createdAt,value
2022-08-17T00:00:44.062Z,41.40
2022-08-17T00:03:15.097Z,42.50
2022-08-17T00:05:48.040Z,43.10
2022-08-17T00:08:24.993Z,41.20
2022-08-17T00:10:55.913Z,42.63
2022-08-17T00:13:29.472Z,40.57
2022-08-17T00:16:00.815Z,42.10
2022-08-17T00:19:01.196Z,41.40
2022-08-17T00:21:25.329Z,41.03
2022-08-17T00:23:55.990Z,39.67
2022-08-17T00:26:43.631Z,40.10
2022-08-17T00:29:19.651Z,40.20
2022-08-17T00:31:48.983Z,42.80
2022-08-17T00:34:17.628Z,43.30
2022-08-17T00:36:46.539Z,41.47
2022-08-17T00:39:16.166Z,41.87
2022-08-17T00:41:44.894Z,41.03
2022-08-17T00:44:13.219Z,41.17
2022-08-17T00:46:45.288Z,40.43
2022-08-17T00:49:14.813Z,40.57
2022-08-17T00:51:49.076Z,41.70
2022-08-17T00:54:24.995Z,42.40
2022-08-17T00:56:57.839Z,43.00
2022-08-17T00:59:30.913Z,44.53
2022-08-17T01:02:00.316Z,42.57
2022-08-17T01:04:32.437Z,42.00
2022-08-17T01:07:04.712Z,44.53
2022-08-17T01:09:34.937Z,41.50
2022-08-17T01:12:06.572Z,41.10
2022-08-17T01:14:37.782Z,39.73
2022-08-17T01:17:06.843Z,38.20
2022-08-17T01:19:39.263Z,38.17
2022-08-17T01:22:21.699Z,40.77
2022-08-17T01:24:57.246Z,40.00
2022-08-17T01:27:26.728Z,37.70
2022-08-17T01:30:02.159Z,41.07
2022-08-17T01:32:31.481Z,38.43
2022-08-17T01:35:01.803Z,37.70
2022-08-17T01:37:35.317Z,37.60
2022-08-17T01:40:12.721Z,37.40
2022-08-17T01:42:47.729Z,38.83
2022-08-17T01:45:20.209Z,36.50
2022-08-17T01:47:48.588Z,37.40
2022-08-17T01:50:24.654Z,35.83
2022-08-17T01:53:00.652Z,37.30
2022-08-17T01:55:38.093Z,35.47
2022-08-17T01:58:09.874Z,34.97
2022-08-17T02:01:00.225Z,36.60
2022-08-17T02:03:27.805Z,36.27
2022-08-17T02:05:56.558Z,36.30
2022-08-17T02:08:38.749Z,37.00
2022-08-17T02:11:12.035Z,35.17
2022-08-17T02:13:40.693Z,33.00
2022-08-17T02:16:09.104Z,34.63
2022-08-17T02:18:37.459Z,33.27
2022-08-17T02:21:07.278Z,31.77
2022-08-17T02:23:42.922Z,31.90
2022-08-17T02:26:24.241Z,31.67
2022-08-17T02:28:55.045Z,30.97
2022-08-17T02:31:23.484Z,30.53
2022-08-17T02:34:03.487Z,31.00
2022-08-17T02:36:34.717Z,31.73
2022-08-17T02:39:07.086Z,31.90
2022-08-17T02:41:36.574Z,31.20
2022-08-17T02:44:06.696Z,29.33
2022-08-17T02:46:35.206Z,29.33
2022-08-17T02:49:03.859Z,27.17
2022-08-17T02:51:32.985Z,28.90
2022-08-17T02:54:38.930Z,30.07
2022-08-17T02:56:51.437Z,29.13
2022-08-17T02:59:19.924Z,30.13
2022-08-17T03:01:48.317Z,29.90
2022-08-17T03:04:17.006Z,32.17
2022-08-17T03:06:46.166Z,33.90
2022-08-17T03:09:16.446Z,32.60
2022-08-17T03:11:45.452Z,30.90
2022-08-17T03:14:15.701Z,32.20
2022-08-17T03:16:44.028Z,33.50
2022-08-17T03:19:12.918Z,32.03
2022-08-17T03:21:41.333Z,29.70
2022-08-17T03:24:09.902Z,30.57
2022-08-17T03:26:38.847Z,31.33
2022-08-17T03:29:07.252Z,27.50
2022-08-17T03:31:37.282Z,28.40
2022-08-17T03:34:05.982Z,27.10
2022-08-17T03:36:36.125Z,27.10
2022-08-17T03:39:05.563Z,27.77
2022-08-17T03:41:33.963Z,28.20
2022-08-17T03:44:03.932Z,30.07
2022-08-17T03:46:49.470Z,31.07
2022-08-17T03:49:36.945Z,32.00
2022-08-17T03:52:23.362Z,35.60
2022-08-17T03:55:09.226Z,35.83
2022-08-17T03:57:37.778Z,35.07
2022-08-17T04:00:07.944Z,38.30
2022-08-17T04:02:40.588Z,40.23
2022-08-17T04:05:10.887Z,38.10
2022-08-17T04:07:39.188Z,37.87
2022-08-17T04:10:09.022Z,36.77
2022-08-17T04:12:46.399Z,36.27
2022-08-17T04:15:15.334Z,35.77
2022-08-17T04:17:45.120Z,36.40
2022-08-17T04:20:19.269Z,35.17
2022-08-17T04:22:59.591Z,36.70
2022-08-17T04:25:29.133Z,33.10
2022-08-17T04:27:58.511Z,33.00
2022-08-17T04:30:28.683Z,35.33
2022-08-17T04:33:06.389Z,33.87
2022-08-17T04:35:41.199Z,32.60
2022-08-17T04:38:20.737Z,31.37
2022-08-17T04:41:07.778Z,32.80
2022-08-17T04:43:37.412Z,29.63
2022-08-17T04:46:09.278Z,30.50
2022-08-17T04:48:40.801Z,29.13
2022-08-17T04:51:15.745Z,29.80
2022-08-17T04:53:53.981Z,29.60
2022-08-17T04:56:26.086Z,29.57
2022-08-17T04:58:57.960Z,29.57
2022-08-17T05:01:29.195Z,29.77
2022-08-17T05:04:25.148Z,29.10
2022-08-17T05:06:54.597Z,28.90
2022-08-17T05:09:23.208Z,28.50
2022-08-17T05:11:52.784Z,28.30
2022-08-17T05:14:33.046Z,28.10
2022-08-17T05:17:07.332Z,28.10
2022-08-17T05:19:39.424Z,27.10
2022-08-17T05:22:09.403Z,27.13
2022-08-17T05:24:42.518Z,27.10
2022-08-17T05:27:16.784Z,27.13
2022-08-17T05:29:47.670Z,27.97
2022-08-17T05:32:39.173Z,29.20
2022-08-17T05:35:05.144Z,27.93
2022-08-17T05:37:34.805Z,26.43
2022-08-17T05:40:03.382Z,26.67
2022-08-17T05:42:31.723Z,27.73
2022-08-17T05:45:00.017Z,26.50
2022-08-17T05:47:29.461Z,25.47
2022-08-17T05:49:58.697Z,26.47
2022-08-17T05:52:38.983Z,25.30
2022-08-17T05:55:19.442Z,24.50
2022-08-17T05:58:05.080Z,23.60
2022-08-17T06:00:44.773Z,23.37
2022-08-17T06:03:30.202Z,23.93
2022-08-17T06:06:15.693Z,23.70
2022-08-17T06:08:52.512Z,24.43
2022-08-17T06:11:29.637Z,23.20
2022-08-17T06:14:17.417Z,22.90
2022-08-17T06:16:52.175Z,21.30
2022-08-17T06:19:28.859Z,21.13
2022-08-17T06:21:57.695Z,23.43
2022-08-17T06:24:34.262Z,21.33
2022-08-17T06:27:13.048Z,20.37
2022-08-17T06:29:51.792Z,19.20
2022-08-17T06:32:20.446Z,19.67
2022-08-17T06:34:48.997Z,18.93
2022-08-17T06:37:57.169Z,17.43
2022-08-17T06:40:56.311Z,17.43
2022-08-17T06:43:48.188Z,17.83
2022-08-17T06:46:26.062Z,16.77
2022-08-17T06:49:10.482Z,17.07
2022-08-17T06:51:43.436Z,17.80
2022-08-17T06:54:19.130Z,16.63
2022-08-17T06:56:55.800Z,16.63
2022-08-17T06:59:54.878Z,16.70
2022-08-17T07:02:29.399Z,16.47
2022-08-17T07:05:21.180Z,16.00
2022-08-17T07:08:05.063Z,16.90
2022-08-17T07:10:42.636Z,16.20
2022-08-17T07:13:32.580Z,16.07
2022-08-17T07:16:14.778Z,16.57
2022-08-17T07:18:46.072Z,17.00
2022-08-17T07:21:38.652Z,17.53
2022-08-17T07:24:31.020Z,16.67
2022-08-17T07:27:14.218Z,16.00
2022-08-17T07:29:54.717Z,16.20
2022-08-17T07:32:29.586Z,16.37
2022-08-17T07:35:15.599Z,16.97
2022-08-17T07:37:53.194Z,14.90
2022-08-17T07:40:35.215Z,15.70
2022-08-17T07:43:21.998Z,15.93
2022-08-17T07:46:37.206Z,15.30
2022-08-17T07:49:23.750Z,14.30
2022-08-17T07:52:24.212Z,14.30
2022-08-17T07:54:54.515Z,14.43
2022-08-17T07:57:36.383Z,14.07
2022-08-17T08:00:31.861Z,14.13
2022-08-17T08:03:23.719Z,13.57
2022-08-17T08:06:02.110Z,15.87
2022-08-17T08:08:38.567Z,16.07
2022-08-17T08:11:11.517Z,16.67
2022-08-17T08:13:45.377Z,16.27
2022-08-17T08:16:29.306Z,16.20
2022-08-17T08:19:02.771Z,16.33
2022-08-17T08:21:46.430Z,15.83
2022-08-17T08:24:42.130Z,17.07
2022-08-17T08:27:23.466Z,16.67
2022-08-17T08:29:58.246Z,16.70
2022-08-17T08:32:45.505Z,17.50
2022-08-17T08:35:26.860Z,17.70
2022-08-17T08:38:04.058Z,17.00
2022-08-17T08:41:17.442Z,17.20
2022-08-17T08:44:00.906Z,16.23
2022-08-17T08:46:37.696Z,16.10
2022-08-17T08:50:03.460Z,16.50
2022-08-17T08:53:15.459Z,14.63
2022-08-17T08:55:55.075Z,16.23
2022-08-17T08:58:41.790Z,15.60
2022-08-17T09:01:21.995Z,15.83
2022-08-17T09:04:25.560Z,15.60
2022-08-17T09:07:07.842Z,14.30
2022-08-17T09:09:55.140Z,13.60
2022-08-17T09:12:36.439Z,11.83
2022-08-17T09:15:14.573Z,12.20
2022-08-17T09:18:08.643Z,13.30
2022-08-17T09:20:50.656Z,12.50
2022-08-17T09:23:32.533Z,11.97
2022-08-17T09:26:10.545Z,11.80
2022-08-17T09:28:41.332Z,10.97
2022-08-17T09:31:12.820Z,11.30
2022-08-17T09:33:48.207Z,11.03
2022-08-17T09:36:24.265Z,10.20
2022-08-17T09:39:03.355Z,11.60
2022-08-17T09:41:49.043Z,11.70
2022-08-17T09:44:32.409Z,12.00
2022-08-17T09:47:10.021Z,12.13
2022-08-17T09:49:47.140Z,12.00
2022-08-17T09:52:22.316Z,11.93
2022-08-17T09:54:53.526Z,13.23
2022-08-17T09:57:38.102Z,12.57
2022-08-17T10:00:23.753Z,12.63
2022-08-17T10:03:21.828Z,13.00
2022-08-17T10:05:57.226Z,11.97
2022-08-17T10:08:36.666Z,11.53
2022-08-17T10:11:33.328Z,11.50
2022-08-17T10:14:37.305Z,12.53
2022-08-17T10:17:13.523Z,11.97
2022-08-17T10:19:54.854Z,12.07
2022-08-17T10:22:53.059Z,11.37
2022-08-17T10:25:53.994Z,12.73
2022-08-17T10:28:30.311Z,12.20
2022-08-17T10:34:46.740Z,11.73
2022-08-17T10:37:54.805Z,11.07
2022-08-17T10:40:35.897Z,13.53
2022-08-17T10:43:22.817Z,13.90
2022-08-17T10:46:09.509Z,13.63
2022-08-17T10:49:26.842Z,14.97
2022-08-17T10:51:57.782Z,14.50
2022-08-17T10:54:42.533Z,14.67
2022-08-17T10:57:42.461Z,16.07
2022-08-17T11:01:11.474Z,16.50
2022-08-17T11:03:54.065Z,16.60
2022-08-17T11:06:42.575Z,19.70
2022-08-17T11:09:30.563Z,18.47
2022-08-17T11:12:20.350Z,18.60
2022-08-17T11:15:23.022Z,17.63
2022-08-17T11:18:22.837Z,17.27
2022-08-17T11:21:20.253Z,17.60
2022-08-17T11:24:17.872Z,16.80
2022-08-17T11:27:13.568Z,17.40
2022-08-17T11:29:58.104Z,16.40
2022-08-17T11:32:38.300Z,16.80
2022-08-17T11:35:36.987Z,16.93
2022-08-17T11:38:25.313Z,18.20
2022-08-17T11:41:27.455Z,17.60
2022-08-17T11:44:10.506Z,18.37
2022-08-17T11:47:22.104Z,19.70
2022-08-17T11:50:31.790Z,17.93
2022-08-17T11:53:00.617Z,19.37
2022-08-17T11:56:04.808Z,18.33
2022-08-17T11:58:42.254Z,19.33
2022-08-17T12:01:13.839Z,17.67
2022-08-17T12:03:56.766Z,19.20
2022-08-17T12:06:54.857Z,17.40
2022-08-17T12:09:27.001Z,17.30
2022-08-17T12:12:13.071Z,16.63
2022-08-17T12:17:40.139Z,16.90
2022-08-17T12:20:16.300Z,18.80
2022-08-17T12:22:56.575Z,18.50
2022-08-17T12:25:33.965Z,18.17
2022-08-17T12:28:06.523Z,18.90
2022-08-17T12:30:38.691Z,20.30
2022-08-17T12:33:25.789Z,19.53
2022-08-17T12:36:03.911Z,19.87
2022-08-17T12:38:36.117Z,19.07
2022-08-17T12:41:21.596Z,19.00
2022-08-17T12:44:01.852Z,19.10
2022-08-17T12:46:35.943Z,19.20
2022-08-17T12:49:18.185Z,18.20
2022-08-17T12:51:48.953Z,19.70
2022-08-17T12:54:33.645Z,20.60
2022-08-17T12:57:12.599Z,21.13
2022-08-17T12:59:46.521Z,20.80
2022-08-17T13:02:40.197Z,20.10
2022-08-17T13:05:21.278Z,20.73
2022-08-17T13:07:50.728Z,19.93
2022-08-17T13:10:32.172Z,21.10
2022-08-17T13:13:05.361Z,19.77
2022-08-17T13:15:44.356Z,18.70
2022-08-17T13:18:40.097Z,20.43
2022-08-17T13:21:23.361Z,19.90
2022-08-17T13:24:04.764Z,19.80
2022-08-17T13:26:39.146Z,19.50
2022-08-17T13:29:18.451Z,19.37
2022-08-17T13:31:51.868Z,20.50
2022-08-17T13:35:01.652Z,19.03
2022-08-17T13:37:33.600Z,18.30
2022-08-17T13:40:27.988Z,20.77
2022-08-17T13:42:57.632Z,21.40
2022-08-17T13:45:50.433Z,23.13
2022-08-17T13:48:29.231Z,22.17
2022-08-17T13:51:33.458Z,22.60
2022-08-17T13:54:19.715Z,21.50
2022-08-17T13:57:02.171Z,22.37
2022-08-17T13:59:54.318Z,20.90
2022-08-17T14:02:25.889Z,22.00
2022-08-17T14:04:57.312Z,21.13
2022-08-17T14:07:41.690Z,22.93
2022-08-17T14:10:15.049Z,22.00
2022-08-17T14:12:46.594Z,23.23
2022-08-17T14:15:20.517Z,22.03
2022-08-17T14:17:50.172Z,23.83
2022-08-17T14:20:22.898Z,21.53
2022-08-17T14:22:55.714Z,21.40
2022-08-17T14:25:26.949Z,22.47
2022-08-17T14:27:56.641Z,21.30
2022-08-17T14:30:28.939Z,22.63
2022-08-17T14:33:02.056Z,22.40
2022-08-17T14:35:30.804Z,21.53
2022-08-17T14:38:02.108Z,20.63
2022-08-17T14:40:30.391Z,21.87
2022-08-17T14:42:59.278Z,21.93
2022-08-17T14:45:32.119Z,22.63
2022-08-17T14:48:05.719Z,20.60
2022-08-17T14:50:36.102Z,22.47
2022-08-17T14:53:08.536Z,21.97
2022-08-17T14:55:39.957Z,21.43
2022-08-17T14:58:08.797Z,21.07
2022-08-17T15:00:37.509Z,21.03
2022-08-17T15:03:06.582Z,22.90
2022-08-17T15:05:37.411Z,23.57
2022-08-17T15:08:08.055Z,21.37
2022-08-17T15:10:37.718Z,21.33
2022-08-17T15:13:11.495Z,22.30
2022-08-17T15:15:40.528Z,23.27
2022-08-17T15:18:08.766Z,22.30
2022-08-17T15:20:37.074Z,21.23
2022-08-17T15:23:07.147Z,23.63
2022-08-17T15:25:36.673Z,22.80
2022-08-17T15:28:05.568Z,23.80
2022-08-17T15:30:35.211Z,24.53
2022-08-17T15:33:04.381Z,24.37
2022-08-17T15:35:34.855Z,24.90
2022-08-17T15:38:12.402Z,24.87
2022-08-17T15:40:45.518Z,24.93
2022-08-17T15:43:19.282Z,25.67
2022-08-17T15:45:54.841Z,25.27
2022-08-17T15:48:40.778Z,26.40
2022-08-17T15:51:11.951Z,25.63
2022-08-17T15:53:43.936Z,24.37
2022-08-17T15:56:13.670Z,26.47
2022-08-17T15:58:44.103Z,25.30
2022-08-17T16:01:18.603Z,24.93
2022-08-17T16:04:06.647Z,26.93
2022-08-17T16:06:35.818Z,24.80
2022-08-17T16:09:05.688Z,25.57
2022-08-17T16:11:34.049Z,25.37
2022-08-17T16:14:02.826Z,23.87
2022-08-17T16:16:31.272Z,24.03
2022-08-17T16:18:59.669Z,24.90
2022-08-17T16:21:29.744Z,24.67
2022-08-17T16:24:04.073Z,26.17
2022-08-17T16:26:36.553Z,26.87
2022-08-17T16:29:07.677Z,26.30
2022-08-17T16:31:37.649Z,24.07
2022-08-17T16:34:17.135Z,24.87
2022-08-17T16:36:55.506Z,26.37
2022-08-17T16:39:27.487Z,25.20
2022-08-17T16:41:58.524Z,26.33
2022-08-17T16:44:31.637Z,25.40
2022-08-17T16:47:01.660Z,26.37
2022-08-17T16:49:37.009Z,25.93
2022-08-17T16:52:11.040Z,26.97
2022-08-17T16:54:44.218Z,26.70
2022-08-17T16:57:15.612Z,27.10
2022-08-17T16:59:48.128Z,25.97
2022-08-17T17:02:25.096Z,26.40
2022-08-17T17:05:02.646Z,26.23
2022-08-17T17:08:04.889Z,27.63
2022-08-17T17:10:40.627Z,26.10
2022-08-17T17:13:17.856Z,25.37
2022-08-17T17:15:59.274Z,27.40
2022-08-17T17:18:40.306Z,24.90
2022-08-17T17:21:15.258Z,24.30
2022-08-17T17:23:56.402Z,26.20
2022-08-17T17:27:07.373Z,26.60
2022-08-17T17:29:49.330Z,26.63
2022-08-17T17:32:25.709Z,25.13
2022-08-17T17:35:02.867Z,25.40
2022-08-17T17:37:36.382Z,25.50
2022-08-17T17:40:14.473Z,26.53
2022-08-17T17:42:48.369Z,26.10
2022-08-17T17:45:23.635Z,27.90
2022-08-17T17:47:52.686Z,25.73
2022-08-17T17:50:26.941Z,27.33
2022-08-17T17:53:03.244Z,26.37
2022-08-17T17:55:48.757Z,26.10
2022-08-17T17:58:37.136Z,26.33
2022-08-17T18:01:28.754Z,26.07
2022-08-17T18:04:21.655Z,25.57
2022-08-17T18:07:10.483Z,24.50
2022-08-17T18:10:04.622Z,25.70
2022-08-17T18:12:57.810Z,27.30
2022-08-17T18:15:34.025Z,27.90
2022-08-17T18:18:39.452Z,27.07
2022-08-17T18:21:19.327Z,26.37
2022-08-17T18:23:56.303Z,26.27
2022-08-17T18:26:55.192Z,27.87
2022-08-17T18:29:45.502Z,29.60
2022-08-17T18:32:34.724Z,26.60
2022-08-17T18:35:35.110Z,28.10
2022-08-17T18:38:23.474Z,27.00
2022-08-17T18:41:03.396Z,28.20
2022-08-17T18:43:44.479Z,29.53
2022-08-17T18:46:32.460Z,25.93
2022-08-17T18:49:03.168Z,30.27
2022-08-17T18:51:41.520Z,26.23
2022-08-17T18:54:21.366Z,27.97
2022-08-17T18:56:56.112Z,27.30
2022-08-17T18:59:32.195Z,29.23
2022-08-17T19:02:44.712Z,31.00
2022-08-17T19:05:27.529Z,30.40
2022-08-17T19:08:22.463Z,30.07
2022-08-17T19:10:55.632Z,31.87
2022-08-17T19:13:32.983Z,31.77
2022-08-17T19:16:14.387Z,30.50
2022-08-17T19:18:53.206Z,28.10
2022-08-17T19:21:26.608Z,29.90
2022-08-17T19:24:06.181Z,31.20
2022-08-17T19:26:51.191Z,29.87
2022-08-17T19:29:34.355Z,30.20
2022-08-17T19:32:04.789Z,28.60
2022-08-17T19:34:36.843Z,29.77
2022-08-17T19:37:13.693Z,27.90
2022-08-17T19:39:55.540Z,29.13
2022-08-17T19:42:40.554Z,28.40
2022-08-17T19:45:16.855Z,26.70
2022-08-17T19:47:55.933Z,27.63
2022-08-17T19:50:39.083Z,26.30
2022-08-17T19:53:20.334Z,26.77
2022-08-17T19:56:01.120Z,27.50
2022-08-17T19:58:48.187Z,26.50
2022-08-17T20:01:25.019Z,25.90
2022-08-17T20:04:04.391Z,24.93
2022-08-17T20:06:38.305Z,25.63
2022-08-17T20:09:17.512Z,25.40
2022-08-17T20:11:56.176Z,25.57
2022-08-17T20:14:41.713Z,24.83
2022-08-17T20:17:23.465Z,24.80
2022-08-17T20:20:01.833Z,25.87
2022-08-17T20:22:36.792Z,24.87
2022-08-17T20:25:30.488Z,25.93
2022-08-17T20:28:18.710Z,25.53
2022-08-17T20:30:47.425Z,24.10
2022-08-17T20:33:29.649Z,25.10
2022-08-17T20:36:19.102Z,24.57
2022-08-17T20:38:50.614Z,22.53
2022-08-17T20:41:22.516Z,23.83
2022-08-17T20:44:05.256Z,25.03
2022-08-17T20:46:58.680Z,24.23
2022-08-17T20:49:47.193Z,23.70
2022-08-17T20:52:38.472Z,23.73
2022-08-17T20:55:08.075Z,22.90
2022-08-17T20:57:50.544Z,23.30
2022-08-17T21:00:46.363Z,23.00
2022-08-17T21:03:50.672Z,22.43
2022-08-17T21:06:24.123Z,22.10
2022-08-17T21:08:59.902Z,25.37
2022-08-17T21:12:03.876Z,22.73
2022-08-17T21:14:56.400Z,23.80
2022-08-17T21:17:47.619Z,22.60
2022-08-17T21:20:32.479Z,25.70
2022-08-17T21:23:40.604Z,24.80
2022-08-17T21:26:25.544Z,22.70
2022-08-17T21:29:29.659Z,22.57
2022-08-17T21:32:24.273Z,23.17
2022-08-17T21:35:29.165Z,22.27
2022-08-17T21:38:05.112Z,21.63
2022-08-17T21:40:36.348Z,21.87
2022-08-17T21:43:23.815Z,20.73
2022-08-17T21:46:05.408Z,20.27
2022-08-17T21:48:43.971Z,19.90
2022-08-17T21:51:20.764Z,20.47
2022-08-17T21:53:52.964Z,19.20
2022-08-17T21:56:26.414Z,18.40
2022-08-17T21:59:00.577Z,18.27
2022-08-17T22:01:34.742Z,18.17
2022-08-17T22:04:19.429Z,17.80
2022-08-17T22:06:57.583Z,19.13
2022-08-17T22:09:30.028Z,16.80
2022-08-17T22:12:06.041Z,18.13
2022-08-17T22:14:53.370Z,18.13
2022-08-17T22:17:25.143Z,19.00
2022-08-17T22:19:59.704Z,19.00
2022-08-17T22:22:58.871Z,18.90
2022-08-17T22:25:29.569Z,17.57
2022-08-17T22:28:01.437Z,17.50
2022-08-17T22:30:59.406Z,17.43
2022-08-17T22:33:39.666Z,17.77
2022-08-17T22:36:29.923Z,18.40
2022-08-17T22:39:45.496Z,18.50
2022-08-17T22:42:15.706Z,19.03
2022-08-17T22:44:50.263Z,19.17
2022-08-17T22:47:38.695Z,17.90
2022-08-17T22:50:22.408Z,20.23
2022-08-17T22:53:16.789Z,18.17
2022-08-17T22:56:13.551Z,19.10
2022-08-17T22:59:08.458Z,20.40
2022-08-17T23:01:36.977Z,19.33
2022-08-17T23:04:08.874Z,20.93
2022-08-17T23:06:42.378Z,20.50
2022-08-17T23:09:10.934Z,21.57
2022-08-17T23:11:49.801Z,21.03
2022-08-17T23:14:20.960Z,22.70
2022-08-17T23:16:50.171Z,23.13
2022-08-17T23:19:21.732Z,21.43
2022-08-17T23:21:54.428Z,21.67
2022-08-17T23:24:26.418Z,20.60
2022-08-17T23:26:58.133Z,21.77
2022-08-17T23:29:29.115Z,23.50
2022-08-17T23:32:01.735Z,21.43
2022-08-17T23:34:30.299Z,22.87
2022-08-17T23:37:02.303Z,21.20
2022-08-17T23:39:30.937Z,23.40
2022-08-17T23:42:07.922Z,20.63
2022-08-17T23:44:37.392Z,22.27
2022-08-17T23:47:07.822Z,20.67
2022-08-17T23:49:37.489Z,20.40
2022-08-17T23:52:09.877Z,22.10
2022-08-17T23:54:45.068Z,21.63
2022-08-17T23:57:18.408Z,21.80
2022-08-17T23:59:47.149Z,22.67
